Athelstane, Wisconsin
Current Conditions -  °F | °C
As of 6:54 AM on Thursday 23 Oct 2014 (Local Time) from KIMT Reporting Station
Haze Haze  
Wind Chill: 31°   Ceiling: 400
Heat Index: 37°   Visibility: 4mi
Dew Point: 35°   Wind: 8mph
Humidity: 93%   Direction: 140°SE
Pressure: 30.12"   Gusts: NA
Location:  45.42°N, 88.1°W
Report Text: KIMT 231154Z AUTO 14007KT 4SM BR OVC004 03/02 A3012 RMK AO2 SLP212 T00280017 10039 20028 56012
Loading
Personal Weather Stations






























Interactive Weather Map
Tropical Storm Tracking
New forecast layout! Learn more

10-Day Weather Forecast

Advertisements
Track Severe Weather on mobile